Terminal Aerodrome Forecast
Issued by NWS

Home | Current Version | Previous Version | Text Only | Print | Product List | Glossary On
Versions: 1 2 3 4 5 6 7 8 9 10 11 12 13 14
713
FTUS42 KFFC 080520
TAFRYY
TAF
KRYY 080520Z 0806/0906 27003KT P6SM BKN250
     FM080800 25003KT P6SM SCT035 BKN100
     FM081300 26007KT P6SM OVC025
     FM081700 27014G23KT P6SM SCT035 BKN050
      TEMPO 0817/0821 6SM -SHRA BKN035
     FM082300 30011G20KT P6SM OVC025 PROB30 0823/0905 6SM -SHSN
      BKN015
      AMD NOT SKED TIL 081200=

USA.gov is the U.S. government's official web portal to all federal, state and local government web resources and services.